This is the latest recevied weather packets stored in our database for station/object KC3ULW-13. If no packets are shown the sender has not sent any weather packets the latest 1 day(s).
| Time | Temp. | Humidity | Pressure | Rain* | Wind** | Luminosity | Snow |
|---|---|---|---|---|---|---|---|
| 1778043852 | 16.11° C | 76% | 1011.1 hPa | 1.27 mm | - | 0 W/m² | - |
| 1778043549 | 16.67° C | 74% | 1010.9 hPa | 0 mm | - | 0 W/m² | - |
| 1778043246 | 16.67° C | 72% | 1011 hPa | 0 mm | - | 0 W/m² | - |
| 1778042337 | 17.78° C | 68% | 1011.2 hPa | 0 mm | - | 0 W/m² | - |
| 1778042034 | 18.33° C | 67% | 1011 hPa | 0 mm | - | 0 W/m² | - |
| 1778041732 | 18.89° C | 63% | 1011 hPa | 0 mm | - | 0 W/m² | - |
| 1778041431 | 18.89° C | 59% | 1011 hPa | 0 mm | - | 0 W/m² | - |
| 1778040826 | 20° C | 55% | 1010.5 hPa | 0 mm | - | 0 W/m² | - |
| 1778040523 | 20° C | 54% | 1010.5 hPa | 0 mm | - | 0 W/m² | - |
| 1778040221 | 19.44° C | 54% | 1010.3 hPa | 0 mm | - | 0 W/m² | - |
| 1778039916 | 18.89° C | 57% | 1010.1 hPa | 0 mm | - | 0 W/m² | - |
| 1778039614 | 18.89° C | 58% | 1010.2 hPa | 0 mm | - | 0 W/m² | - |
| 1778039311 | 18.89° C | 57% | 1010.1 hPa | 0 mm | - | 0 W/m² | - |
| 1778038099 | 18.89° C | 58% | 1010.1 hPa | 0 mm | - | 0 W/m² | - |
| 1778037796 | 18.89° C | 58% | 1010.2 hPa | 0 mm | - | 0 W/m² | - |
| 1778037493 | 18.89° C | 58% | 1010.1 hPa | 0 mm | - | 0 W/m² | - |
| 1778037190 | 18.89° C | 58% | 1010.3 hPa | 0 mm | - | 0 W/m² | - |
| 1778036888 | 18.89° C | 58% | 1010.3 hPa | 0 mm | - | 0 W/m² | - |
| 1778036586 | 18.89° C | 57% | 1010.1 hPa | 0 mm | - | 0 W/m² | - |
| 1778036282 | 18.89° C | 58% | 1010.1 hPa | 0 mm | - | 0 W/m² | - |
| 1778035979 | 18.89° C | 57% | 1010.1 hPa | 0 mm | - | 0 W/m² | - |
| 1778035676 | 18.89° C | 57% | 1010.2 hPa | 0 mm | - | 0 W/m² | - |
| 1778035372 | 18.89° C | 57% | 1010.2 hPa | 0 mm | - | 0 W/m² | - |
| 1778035068 | 18.89° C | 57% | 1010.3 hPa | 0 mm | - | 0 W/m² | - |
| 1778034766 | 18.89° C | 57% | 1010.3 hPa | 0 mm | - | 0 W/m² | - |
* Rain latest hour (hover to see other rain measurements)
** Current wind speed in m/s (hover to see current wind gust speed)